sensor_id;sensor_type;location;lat;lon;timestamp;P1;durP1;ratioP1;P2;durP2;ratioP2
37407;SDS011;24866;50.248;8.252;2023-10-19T00:01:28;14.40;;;10.70;;
37407;SDS011;24866;50.248;8.252;2023-10-19T00:03:59;15.65;;;12.63;;
37407;SDS011;24866;50.248;8.252;2023-10-19T00:06:27;15.73;;;12.38;;
37407;SDS011;24866;50.248;8.252;2023-10-19T00:08:59;17.00;;;11.30;;
37407;SDS011;24866;50.248;8.252;2023-10-19T00:11:27;14.60;;;11.13;;
37407;SDS011;24866;50.248;8.252;2023-10-19T00:14:03;14.00;;;11.23;;
37407;SDS011;24866;50.248;8.252;2023-10-19T00:16:44;14.40;;;11.02;;
37407;SDS011;24866;50.248;8.252;2023-10-19T00:19:21;13.75;;;10.32;;
37407;SDS011;24866;50.248;8.252;2023-10-19T00:21:53;12.70;;;9.73;;
37407;SDS011;24866;50.248;8.252;2023-10-19T00:24:30;14.65;;;10.02;;
37407;SDS011;24866;50.248;8.252;2023-10-19T00:26:59;12.32;;;10.25;;
37407;SDS011;24866;50.248;8.252;2023-10-19T00:29:35;13.65;;;11.25;;
37407;SDS011;24866;50.248;8.252;2023-10-19T00:32:09;14.48;;;11.23;;
37407;SDS011;24866;50.248;8.252;2023-10-19T00:34:42;14.40;;;11.35;;
37407;SDS011;24866;50.248;8.252;2023-10-19T00:37:19;16.38;;;12.10;;
37407;SDS011;24866;50.248;8.252;2023-10-19T00:39:54;15.27;;;11.45;;
37407;SDS011;24866;50.248;8.252;2023-10-19T00:42:42;14.48;;;11.23;;
37407;SDS011;24866;50.248;8.252;2023-10-19T00:45:22;15.98;;;11.48;;
37407;SDS011;24866;50.248;8.252;2023-10-19T00:47:55;17.27;;;11.85;;
37407;SDS011;24866;50.248;8.252;2023-10-19T00:50:26;16.42;;;11.55;;
37407;SDS011;24866;50.248;8.252;2023-10-19T00:52:59;15.55;;;11.98;;
37407;SDS011;24866;50.248;8.252;2023-10-19T00:55:29;15.45;;;11.80;;
37407;SDS011;24866;50.248;8.252;2023-10-19T00:58:01;19.65;;;13.98;;
37407;SDS011;24866;50.248;8.252;2023-10-19T01:00:39;16.75;;;12.50;;
37407;SDS011;24866;50.248;8.252;2023-10-19T01:03:13;18.42;;;13.30;;
37407;SDS011;24866;50.248;8.252;2023-10-19T01:05:45;20.42;;;14.75;;
37407;SDS011;24866;50.248;8.252;2023-10-19T01:08:18;20.17;;;13.35;;
37407;SDS011;24866;50.248;8.252;2023-10-19T01:10:54;21.63;;;14.45;;
37407;SDS011;24866;50.248;8.252;2023-10-19T01:13:25;19.58;;;14.52;;
37407;SDS011;24866;50.248;8.252;2023-10-19T01:16:04;23.55;;;16.27;;
37407;SDS011;24866;50.248;8.252;2023-10-19T01:18:34;20.80;;;14.57;;
37407;SDS011;24866;50.248;8.252;2023-10-19T01:21:04;22.42;;;14.88;;
37407;SDS011;24866;50.248;8.252;2023-10-19T01:23:36;23.35;;;15.80;;
37407;SDS011;24866;50.248;8.252;2023-10-19T01:26:07;24.60;;;16.15;;
37407;SDS011;24866;50.248;8.252;2023-10-19T01:28:38;25.67;;;16.42;;
37407;SDS011;24866;50.248;8.252;2023-10-19T01:31:12;22.75;;;16.02;;
37407;SDS011;24866;50.248;8.252;2023-10-19T01:33:44;26.05;;;15.82;;
37407;SDS011;24866;50.248;8.252;2023-10-19T01:36:14;22.83;;;14.32;;
37407;SDS011;24866;50.248;8.252;2023-10-19T01:38:46;20.77;;;14.43;;
37407;SDS011;24866;50.248;8.252;2023-10-19T01:41:16;23.17;;;15.10;;
37407;SDS011;24866;50.248;8.252;2023-10-19T01:43:47;21.20;;;14.75;;
37407;SDS011;24866;50.248;8.252;2023-10-19T01:46:18;21.92;;;14.50;;
37407;SDS011;24866;50.248;8.252;2023-10-19T01:48:59;24.48;;;16.08;;
37407;SDS011;24866;50.248;8.252;2023-10-19T01:51:31;22.55;;;15.70;;
37407;SDS011;24866;50.248;8.252;2023-10-19T01:54:02;24.80;;;15.55;;
37407;SDS011;24866;50.248;8.252;2023-10-19T01:56:33;24.05;;;15.45;;
37407;SDS011;24866;50.248;8.252;2023-10-19T01:59:03;29.45;;;17.92;;
37407;SDS011;24866;50.248;8.252;2023-10-19T02:01:39;30.02;;;18.80;;
37407;SDS011;24866;50.248;8.252;2023-10-19T02:04:13;29.17;;;16.98;;
37407;SDS011;24866;50.248;8.252;2023-10-19T02:06:43;30.92;;;18.73;;
37407;SDS011;24866;50.248;8.252;2023-10-19T02:09:15;36.05;;;19.70;;
37407;SDS011;24866;50.248;8.252;2023-10-19T02:11:52;37.30;;;20.27;;
37407;SDS011;24866;50.248;8.252;2023-10-19T02:14:25;37.10;;;20.65;;
37407;SDS011;24866;50.248;8.252;2023-10-19T02:16:57;43.47;;;22.50;;
37407;SDS011;24866;50.248;8.252;2023-10-19T02:19:33;40.42;;;21.55;;
37407;SDS011;24866;50.248;8.252;2023-10-19T02:22:09;46.38;;;24.40;;
37407;SDS011;24866;50.248;8.252;2023-10-19T02:24:41;46.05;;;23.17;;
37407;SDS011;24866;50.248;8.252;2023-10-19T02:27:10;48.17;;;24.15;;
37407;SDS011;24866;50.248;8.252;2023-10-19T02:29:40;50.75;;;24.10;;
37407;SDS011;24866;50.248;8.252;2023-10-19T02:32:10;53.95;;;24.52;;
37407;SDS011;24866;50.248;8.252;2023-10-19T02:34:40;52.20;;;25.00;;
37407;SDS011;24866;50.248;8.252;2023-10-19T02:37:09;55.08;;;23.85;;
37407;SDS011;24866;50.248;8.252;2023-10-19T02:39:39;45.40;;;22.20;;
37407;SDS011;24866;50.248;8.252;2023-10-19T02:42:09;53.25;;;25.52;;
37407;SDS011;24866;50.248;8.252;2023-10-19T02:44:39;59.42;;;25.55;;
37407;SDS011;24866;50.248;8.252;2023-10-19T02:47:08;55.13;;;24.58;;
37407;SDS011;24866;50.248;8.252;2023-10-19T02:49:38;55.33;;;25.90;;
37407;SDS011;24866;50.248;8.252;2023-10-19T02:52:07;55.55;;;25.45;;
37407;SDS011;24866;50.248;8.252;2023-10-19T02:54:41;55.85;;;26.35;;
37407;SDS011;24866;50.248;8.252;2023-10-19T02:57:11;62.30;;;25.20;;
37407;SDS011;24866;50.248;8.252;2023-10-19T02:59:41;58.10;;;23.40;;
37407;SDS011;24866;50.248;8.252;2023-10-19T03:02:10;53.17;;;23.88;;
37407;SDS011;24866;50.248;8.252;2023-10-19T03:04:45;55.08;;;24.40;;
37407;SDS011;24866;50.248;8.252;2023-10-19T03:07:14;54.00;;;25.10;;
37407;SDS011;24866;50.248;8.252;2023-10-19T03:09:44;55.22;;;25.15;;
37407;SDS011;24866;50.248;8.252;2023-10-19T03:12:21;62.28;;;26.48;;
37407;SDS011;24866;50.248;8.252;2023-10-19T03:14:53;63.83;;;26.40;;
37407;SDS011;24866;50.248;8.252;2023-10-19T03:17:24;71.07;;;26.05;;
37407;SDS011;24866;50.248;8.252;2023-10-19T03:19:58;61.40;;;24.13;;
37407;SDS011;24866;50.248;8.252;2023-10-19T03:22:34;64.85;;;27.20;;
37407;SDS011;24866;50.248;8.252;2023-10-19T03:25:04;62.47;;;25.48;;
37407;SDS011;24866;50.248;8.252;2023-10-19T03:28:05;70.95;;;26.50;;
37407;SDS011;24866;50.248;8.252;2023-10-19T03:30:36;63.95;;;26.63;;
37407;SDS011;24866;50.248;8.252;2023-10-19T03:33:07;59.67;;;24.67;;
37407;SDS011;24866;50.248;8.252;2023-10-19T03:35:38;86.97;;;28.45;;
37407;SDS011;24866;50.248;8.252;2023-10-19T03:38:09;76.28;;;27.60;;
37407;SDS011;24866;50.248;8.252;2023-10-19T03:40:47;74.03;;;26.35;;
37407;SDS011;24866;50.248;8.252;2023-10-19T03:43:21;76.20;;;26.25;;
37407;SDS011;24866;50.248;8.252;2023-10-19T03:45:51;88.28;;;28.10;;
37407;SDS011;24866;50.248;8.252;2023-10-19T03:48:21;82.13;;;26.27;;
37407;SDS011;24866;50.248;8.252;2023-10-19T03:51:02;79.78;;;25.42;;
37407;SDS011;24866;50.248;8.252;2023-10-19T03:53:33;70.10;;;26.52;;
37407;SDS011;24866;50.248;8.252;2023-10-19T03:56:04;79.05;;;26.98;;
37407;SDS011;24866;50.248;8.252;2023-10-19T03:58:40;85.50;;;29.42;;
37407;SDS011;24866;50.248;8.252;2023-10-19T04:01:15;91.93;;;28.42;;
37407;SDS011;24866;50.248;8.252;2023-10-19T04:03:52;68.78;;;26.52;;
37407;SDS011;24866;50.248;8.252;2023-10-19T04:06:25;81.78;;;27.00;;
37407;SDS011;24866;50.248;8.252;2023-10-19T04:08:55;64.28;;;26.40;;
37407;SDS011;24866;50.248;8.252;2023-10-19T04:11:25;68.30;;;28.63;;
37407;SDS011;24866;50.248;8.252;2023-10-19T04:14:02;61.50;;;27.30;;
37407;SDS011;24866;50.248;8.252;2023-10-19T04:16:37;63.28;;;27.45;;
37407;SDS011;24866;50.248;8.252;2023-10-19T04:19:11;64.50;;;27.00;;
37407;SDS011;24866;50.248;8.252;2023-10-19T04:21:43;66.00;;;29.42;;
37407;SDS011;24866;50.248;8.252;2023-10-19T04:24:14;68.13;;;28.48;;
37407;SDS011;24866;50.248;8.252;2023-10-19T04:26:47;64.72;;;26.73;;
37407;SDS011;24866;50.248;8.252;2023-10-19T04:29:18;76.82;;;29.65;;
37407;SDS011;24866;50.248;8.252;2023-10-19T04:31:55;68.65;;;29.05;;
37407;SDS011;24866;50.248;8.252;2023-10-19T04:34:25;67.32;;;28.60;;
37407;SDS011;24866;50.248;8.252;2023-10-19T04:36:55;69.88;;;28.17;;
37407;SDS011;24866;50.248;8.252;2023-10-19T04:39:25;66.05;;;27.20;;
37407;SDS011;24866;50.248;8.252;2023-10-19T04:41:58;60.85;;;26.38;;
37407;SDS011;24866;50.248;8.252;2023-10-19T04:44:31;59.60;;;26.25;;
37407;SDS011;24866;50.248;8.252;2023-10-19T04:49:32;56.38;;;23.92;;
37407;SDS011;24866;50.248;8.252;2023-10-19T04:52:02;60.05;;;25.55;;
37407;SDS011;24866;50.248;8.252;2023-10-19T04:54:32;61.75;;;26.67;;
37407;SDS011;24866;50.248;8.252;2023-10-19T04:57:02;53.08;;;25.50;;
37407;SDS011;24866;50.248;8.252;2023-10-19T04:59:33;57.05;;;26.65;;
37407;SDS011;24866;50.248;8.252;2023-10-19T05:02:03;56.10;;;26.05;;
37407;SDS011;24866;50.248;8.252;2023-10-19T05:04:33;56.25;;;25.30;;
37407;SDS011;24866;50.248;8.252;2023-10-19T05:07:04;56.67;;;26.10;;
37407;SDS011;24866;50.248;8.252;2023-10-19T05:09:33;49.63;;;24.83;;
37407;SDS011;24866;50.248;8.252;2023-10-19T05:12:14;52.85;;;26.92;;
37407;SDS011;24866;50.248;8.252;2023-10-19T05:14:47;51.83;;;25.73;;
37407;SDS011;24866;50.248;8.252;2023-10-19T05:17:19;49.25;;;26.67;;
37407;SDS011;24866;50.248;8.252;2023-10-19T05:19:49;52.92;;;26.13;;
37407;SDS011;24866;50.248;8.252;2023-10-19T05:22:19;49.95;;;25.17;;
37407;SDS011;24866;50.248;8.252;2023-10-19T05:24:52;52.05;;;26.15;;
37407;SDS011;24866;50.248;8.252;2023-10-19T05:27:23;53.13;;;28.13;;
37407;SDS011;24866;50.248;8.252;2023-10-19T05:29:54;53.22;;;26.77;;
37407;SDS011;24866;50.248;8.252;2023-10-19T05:32:24;56.65;;;28.20;;
37407;SDS011;24866;50.248;8.252;2023-10-19T05:34:54;55.60;;;29.42;;
37407;SDS011;24866;50.248;8.252;2023-10-19T05:37:25;55.83;;;29.83;;
37407;SDS011;24866;50.248;8.252;2023-10-19T05:39:57;50.67;;;27.90;;
37407;SDS011;24866;50.248;8.252;2023-10-19T05:42:27;49.97;;;26.25;;
37407;SDS011;24866;50.248;8.252;2023-10-19T05:45:01;54.60;;;27.60;;
37407;SDS011;24866;50.248;8.252;2023-10-19T05:47:33;50.60;;;28.90;;
37407;SDS011;24866;50.248;8.252;2023-10-19T05:50:03;56.28;;;31.02;;
37407;SDS011;24866;50.248;8.252;2023-10-19T05:52:33;62.03;;;31.40;;
37407;SDS011;24866;50.248;8.252;2023-10-19T05:55:03;62.72;;;31.17;;
37407;SDS011;24866;50.248;8.252;2023-10-19T05:57:34;63.50;;;33.20;;
37407;SDS011;24866;50.248;8.252;2023-10-19T06:00:10;69.05;;;32.88;;
37407;SDS011;24866;50.248;8.252;2023-10-19T06:02:42;76.32;;;33.63;;
37407;SDS011;24866;50.248;8.252;2023-10-19T06:05:14;63.70;;;33.85;;
37407;SDS011;24866;50.248;8.252;2023-10-19T06:07:45;68.45;;;30.33;;
37407;SDS011;24866;50.248;8.252;2023-10-19T06:10:17;67.70;;;33.22;;
37407;SDS011;24866;50.248;8.252;2023-10-19T06:12:49;65.45;;;32.50;;
37407;SDS011;24866;50.248;8.252;2023-10-19T06:15:21;65.70;;;32.30;;
37407;SDS011;24866;50.248;8.252;2023-10-19T06:17:54;77.07;;;33.67;;
37407;SDS011;24866;50.248;8.252;2023-10-19T06:20:24;67.65;;;35.05;;
37407;SDS011;24866;50.248;8.252;2023-10-19T06:22:55;85.43;;;33.03;;
37407;SDS011;24866;50.248;8.252;2023-10-19T06:25:33;80.90;;;33.70;;
37407;SDS011;24866;50.248;8.252;2023-10-19T06:28:05;74.00;;;31.63;;
37407;SDS011;24866;50.248;8.252;2023-10-19T06:30:39;69.18;;;33.08;;
37407;SDS011;24866;50.248;8.252;2023-10-19T06:33:10;74.32;;;34.88;;
37407;SDS011;24866;50.248;8.252;2023-10-19T06:35:44;66.07;;;32.70;;
37407;SDS011;24866;50.248;8.252;2023-10-19T06:38:16;73.57;;;32.97;;
37407;SDS011;24866;50.248;8.252;2023-10-19T06:40:47;68.88;;;31.45;;
37407;SDS011;24866;50.248;8.252;2023-10-19T06:43:17;65.28;;;31.48;;
37407;SDS011;24866;50.248;8.252;2023-10-19T06:45:49;70.72;;;32.20;;
37407;SDS011;24866;50.248;8.252;2023-10-19T06:48:24;74.72;;;32.42;;
37407;SDS011;24866;50.248;8.252;2023-10-19T06:50:58;61.95;;;31.92;;
37407;SDS011;24866;50.248;8.252;2023-10-19T06:53:30;61.00;;;32.33;;
37407;SDS011;24866;50.248;8.252;2023-10-19T06:56:01;59.63;;;31.65;;
37407;SDS011;24866;50.248;8.252;2023-10-19T06:58:32;60.40;;;30.25;;
37407;SDS011;24866;50.248;8.252;2023-10-19T07:01:03;62.97;;;31.88;;
37407;SDS011;24866;50.248;8.252;2023-10-19T07:03:37;63.03;;;31.83;;
37407;SDS011;24866;50.248;8.252;2023-10-19T07:06:07;64.88;;;32.25;;
37407;SDS011;24866;50.248;8.252;2023-10-19T07:08:41;55.70;;;31.70;;
37407;SDS011;24866;50.248;8.252;2023-10-19T07:11:12;58.30;;;31.42;;
37407;SDS011;24866;50.248;8.252;2023-10-19T07:13:42;56.85;;;31.38;;
37407;SDS011;24866;50.248;8.252;2023-10-19T07:16:16;53.00;;;31.73;;
37407;SDS011;24866;50.248;8.252;2023-10-19T07:18:48;51.92;;;30.13;;
37407;SDS011;24866;50.248;8.252;2023-10-19T07:21:18;50.85;;;29.17;;
37407;SDS011;24866;50.248;8.252;2023-10-19T07:23:48;54.05;;;31.05;;
37407;SDS011;24866;50.248;8.252;2023-10-19T07:26:21;52.47;;;30.83;;
37407;SDS011;24866;50.248;8.252;2023-10-19T07:28:59;53.63;;;29.35;;
37407;SDS011;24866;50.248;8.252;2023-10-19T07:31:30;46.67;;;28.13;;
37407;SDS011;24866;50.248;8.252;2023-10-19T07:34:01;48.22;;;29.92;;
37407;SDS011;24866;50.248;8.252;2023-10-19T07:36:32;48.95;;;30.17;;
37407;SDS011;24866;50.248;8.252;2023-10-19T07:39:06;52.97;;;31.17;;
37407;SDS011;24866;50.248;8.252;2023-10-19T07:41:42;46.35;;;29.33;;
37407;SDS011;24866;50.248;8.252;2023-10-19T07:44:12;45.53;;;29.38;;
37407;SDS011;24866;50.248;8.252;2023-10-19T07:46:43;42.33;;;27.95;;
37407;SDS011;24866;50.248;8.252;2023-10-19T07:49:13;39.53;;;26.90;;
37407;SDS011;24866;50.248;8.252;2023-10-19T07:51:46;44.42;;;29.65;;
37407;SDS011;24866;50.248;8.252;2023-10-19T07:54:17;43.10;;;28.10;;
37407;SDS011;24866;50.248;8.252;2023-10-19T07:56:48;44.35;;;26.33;;
37407;SDS011;24866;50.248;8.252;2023-10-19T07:59:19;41.72;;;26.63;;
37407;SDS011;24866;50.248;8.252;2023-10-19T08:01:51;39.58;;;25.52;;
37407;SDS011;24866;50.248;8.252;2023-10-19T08:04:21;37.45;;;25.33;;
37407;SDS011;24866;50.248;8.252;2023-10-19T08:06:50;32.33;;;24.50;;
37407;SDS011;24866;50.248;8.252;2023-10-19T08:09:20;33.20;;;24.08;;
37407;SDS011;24866;50.248;8.252;2023-10-19T08:11:52;30.25;;;22.92;;
37407;SDS011;24866;50.248;8.252;2023-10-19T08:14:23;28.38;;;21.38;;
37407;SDS011;24866;50.248;8.252;2023-10-19T08:16:55;28.63;;;22.17;;
37407;SDS011;24866;50.248;8.252;2023-10-19T08:19:28;30.23;;;24.75;;
37407;SDS011;24866;50.248;8.252;2023-10-19T08:21:59;27.88;;;22.60;;
37407;SDS011;24866;50.248;8.252;2023-10-19T08:24:29;26.10;;;21.75;;
37407;SDS011;24866;50.248;8.252;2023-10-19T08:26:58;23.52;;;20.30;;
37407;SDS011;24866;50.248;8.252;2023-10-19T08:29:28;24.65;;;20.17;;
37407;SDS011;24866;50.248;8.252;2023-10-19T08:32:00;25.65;;;20.90;;
37407;SDS011;24866;50.248;8.252;2023-10-19T08:34:30;26.13;;;20.08;;
37407;SDS011;24866;50.248;8.252;2023-10-19T08:37:03;24.08;;;18.25;;
37407;SDS011;24866;50.248;8.252;2023-10-19T08:39:33;19.35;;;15.65;;
37407;SDS011;24866;50.248;8.252;2023-10-19T08:42:05;19.10;;;15.98;;
37407;SDS011;24866;50.248;8.252;2023-10-19T08:44:35;20.75;;;16.90;;
37407;SDS011;24866;50.248;8.252;2023-10-19T08:47:10;20.67;;;16.50;;
37407;SDS011;24866;50.248;8.252;2023-10-19T08:49:40;19.15;;;16.55;;
37407;SDS011;24866;50.248;8.252;2023-10-19T08:52:10;17.70;;;14.10;;
37407;SDS011;24866;50.248;8.252;2023-10-19T08:54:43;17.77;;;13.82;;
37407;SDS011;24866;50.248;8.252;2023-10-19T08:57:13;14.75;;;12.70;;
37407;SDS011;24866;50.248;8.252;2023-10-19T08:59:43;14.90;;;12.15;;
37407;SDS011;24866;50.248;8.252;2023-10-19T09:02:19;16.77;;;11.15;;
37407;SDS011;24866;50.248;8.252;2023-10-19T09:04:48;13.10;;;10.50;;
37407;SDS011;24866;50.248;8.252;2023-10-19T09:07:19;11.18;;;8.98;;
37407;SDS011;24866;50.248;8.252;2023-10-19T09:09:51;11.43;;;8.68;;
37407;SDS011;24866;50.248;8.252;2023-10-19T09:12:21;12.60;;;10.13;;
37407;SDS011;24866;50.248;8.252;2023-10-19T09:14:51;11.23;;;9.52;;
37407;SDS011;24866;50.248;8.252;2023-10-19T09:17:29;11.93;;;8.40;;
37407;SDS011;24866;50.248;8.252;2023-10-19T09:20:00;11.95;;;8.00;;
37407;SDS011;24866;50.248;8.252;2023-10-19T09:22:38;9.20;;;6.40;;
37407;SDS011;24866;50.248;8.252;2023-10-19T09:25:12;12.25;;;7.32;;
37407;SDS011;24866;50.248;8.252;2023-10-19T09:27:42;10.95;;;5.85;;
37407;SDS011;24866;50.248;8.252;2023-10-19T09:30:13;9.88;;;7.35;;
37407;SDS011;24866;50.248;8.252;2023-10-19T09:32:48;16.27;;;6.47;;
37407;SDS011;24866;50.248;8.252;2023-10-19T09:35:18;9.10;;;7.28;;
37407;SDS011;24866;50.248;8.252;2023-10-19T09:37:51;10.18;;;7.10;;
37407;SDS011;24866;50.248;8.252;2023-10-19T09:40:22;11.93;;;8.18;;
37407;SDS011;24866;50.248;8.252;2023-10-19T09:42:53;11.27;;;7.63;;
37407;SDS011;24866;50.248;8.252;2023-10-19T09:45:26;9.35;;;7.07;;
37407;SDS011;24866;50.248;8.252;2023-10-19T09:48:00;13.82;;;9.23;;
37407;SDS011;24866;50.248;8.252;2023-10-19T09:50:34;11.40;;;7.95;;
37407;SDS011;24866;50.248;8.252;2023-10-19T09:53:04;14.20;;;9.73;;
37407;SDS011;24866;50.248;8.252;2023-10-19T09:55:37;12.45;;;8.43;;
37407;SDS011;24866;50.248;8.252;2023-10-19T09:58:12;13.82;;;9.18;;
37407;SDS011;24866;50.248;8.252;2023-10-19T10:00:45;12.57;;;9.73;;
37407;SDS011;24866;50.248;8.252;2023-10-19T10:06:14;13.98;;;10.30;;
37407;SDS011;24866;50.248;8.252;2023-10-19T10:08:48;16.15;;;12.75;;
37407;SDS011;24866;50.248;8.252;2023-10-19T10:11:19;16.92;;;12.38;;
37407;SDS011;24866;50.248;8.252;2023-10-19T10:13:50;17.63;;;12.18;;
37407;SDS011;24866;50.248;8.252;2023-10-19T10:16:24;15.90;;;12.88;;
37407;SDS011;24866;50.248;8.252;2023-10-19T10:18:56;17.15;;;13.75;;
37407;SDS011;24866;50.248;8.252;2023-10-19T10:21:28;16.42;;;12.52;;
37407;SDS011;24866;50.248;8.252;2023-10-19T10:23:59;21.40;;;12.23;;
37407;SDS011;24866;50.248;8.252;2023-10-19T10:29:31;20.70;;;14.32;;
37407;SDS011;24866;50.248;8.252;2023-10-19T10:32:01;20.17;;;14.85;;
37407;SDS011;24866;50.248;8.252;2023-10-19T10:34:44;18.60;;;15.63;;
37407;SDS011;24866;50.248;8.252;2023-10-19T10:37:17;19.27;;;13.73;;
37407;SDS011;24866;50.248;8.252;2023-10-19T10:39:52;17.33;;;12.95;;
37407;SDS011;24866;50.248;8.252;2023-10-19T10:42:28;19.58;;;15.32;;
37407;SDS011;24866;50.248;8.252;2023-10-19T10:44:58;21.27;;;14.90;;
37407;SDS011;24866;50.248;8.252;2023-10-19T10:47:31;16.42;;;12.75;;
37407;SDS011;24866;50.248;8.252;2023-10-19T10:50:03;17.90;;;13.02;;
37407;SDS011;24866;50.248;8.252;2023-10-19T10:52:34;19.00;;;12.80;;
37407;SDS011;24866;50.248;8.252;2023-10-19T10:55:08;14.23;;;11.90;;
37407;SDS011;24866;50.248;8.252;2023-10-19T10:57:40;14.70;;;8.98;;
37407;SDS011;24866;50.248;8.252;2023-10-19T11:00:11;18.13;;;11.00;;
37407;SDS011;24866;50.248;8.252;2023-10-19T11:02:44;14.98;;;9.88;;
37407;SDS011;24866;50.248;8.252;2023-10-19T11:05:16;15.20;;;10.73;;
37407;SDS011;24866;50.248;8.252;2023-10-19T11:08:06;16.70;;;10.15;;
37407;SDS011;24866;50.248;8.252;2023-10-19T11:10:37;15.70;;;9.73;;
37407;SDS011;24866;50.248;8.252;2023-10-19T11:13:07;16.40;;;10.10;;
37407;SDS011;24866;50.248;8.252;2023-10-19T11:15:39;15.20;;;10.32;;
37407;SDS011;24866;50.248;8.252;2023-10-19T11:18:29;14.90;;;12.45;;
37407;SDS011;24866;50.248;8.252;2023-10-19T11:21:03;19.90;;;12.60;;
37407;SDS011;24866;50.248;8.252;2023-10-19T11:23:38;22.33;;;13.93;;
37407;SDS011;24866;50.248;8.252;2023-10-19T11:26:09;17.60;;;12.55;;
37407;SDS011;24866;50.248;8.252;2023-10-19T11:28:40;20.20;;;14.90;;
37407;SDS011;24866;50.248;8.252;2023-10-19T11:31:16;23.17;;;15.02;;
37407;SDS011;24866;50.248;8.252;2023-10-19T11:33:47;20.93;;;15.40;;
37407;SDS011;24866;50.248;8.252;2023-10-19T11:36:19;19.73;;;14.02;;
37407;SDS011;24866;50.248;8.252;2023-10-19T11:41:21;21.13;;;14.57;;
37407;SDS011;24866;50.248;8.252;2023-10-19T11:43:51;18.40;;;13.25;;
37407;SDS011;24866;50.248;8.252;2023-10-19T11:46:22;26.23;;;17.73;;
37407;SDS011;24866;50.248;8.252;2023-10-19T11:48:53;21.65;;;17.05;;
37407;SDS011;24866;50.248;8.252;2023-10-19T11:51:24;19.33;;;15.63;;
37407;SDS011;24866;50.248;8.252;2023-10-19T11:53:55;17.45;;;13.38;;
37407;SDS011;24866;50.248;8.252;2023-10-19T11:56:28;21.83;;;15.13;;
37407;SDS011;24866;50.248;8.252;2023-10-19T11:58:57;18.73;;;14.55;;
37407;SDS011;24866;50.248;8.252;2023-10-19T12:01:27;20.25;;;14.32;;
37407;SDS011;24866;50.248;8.252;2023-10-19T12:03:57;18.30;;;13.73;;
37407;SDS011;24866;50.248;8.252;2023-10-19T12:06:29;18.02;;;14.15;;
37407;SDS011;24866;50.248;8.252;2023-10-19T12:09:02;21.33;;;15.23;;
37407;SDS011;24866;50.248;8.252;2023-10-19T12:11:43;20.05;;;12.90;;
37407;SDS011;24866;50.248;8.252;2023-10-19T12:14:13;17.08;;;12.40;;
37407;SDS011;24866;50.248;8.252;2023-10-19T12:16:44;17.42;;;11.45;;
37407;SDS011;24866;50.248;8.252;2023-10-19T12:19:14;19.55;;;12.98;;
37407;SDS011;24866;50.248;8.252;2023-10-19T12:21:48;15.43;;;11.52;;
37407;SDS011;24866;50.248;8.252;2023-10-19T12:24:19;21.27;;;12.32;;
37407;SDS011;24866;50.248;8.252;2023-10-19T12:26:49;13.95;;;10.35;;
37407;SDS011;24866;50.248;8.252;2023-10-19T12:29:19;17.95;;;12.20;;
37407;SDS011;24866;50.248;8.252;2023-10-19T12:31:49;17.48;;;12.07;;
37407;SDS011;24866;50.248;8.252;2023-10-19T12:34:19;19.35;;;12.35;;
37407;SDS011;24866;50.248;8.252;2023-10-19T12:36:52;17.77;;;12.05;;
37407;SDS011;24866;50.248;8.252;2023-10-19T12:39:25;15.68;;;10.45;;
37407;SDS011;24866;50.248;8.252;2023-10-19T12:42:11;15.40;;;11.48;;
37407;SDS011;24866;50.248;8.252;2023-10-19T12:44:42;14.32;;;10.25;;
37407;SDS011;24866;50.248;8.252;2023-10-19T12:47:12;20.65;;;12.25;;
37407;SDS011;24866;50.248;8.252;2023-10-19T12:49:43;14.57;;;10.38;;
37407;SDS011;24866;50.248;8.252;2023-10-19T12:52:15;18.95;;;12.48;;
37407;SDS011;24866;50.248;8.252;2023-10-19T12:54:45;16.88;;;11.80;;
37407;SDS011;24866;50.248;8.252;2023-10-19T12:57:19;17.52;;;12.32;;
37407;SDS011;24866;50.248;8.252;2023-10-19T12:59:50;14.38;;;11.18;;
37407;SDS011;24866;50.248;8.252;2023-10-19T13:02:20;13.88;;;10.40;;
37407;SDS011;24866;50.248;8.252;2023-10-19T13:04:50;16.50;;;10.98;;
37407;SDS011;24866;50.248;8.252;2023-10-19T13:07:22;14.85;;;10.68;;
37407;SDS011;24866;50.248;8.252;2023-10-19T13:09:53;14.63;;;10.63;;
37407;SDS011;24866;50.248;8.252;2023-10-19T13:12:23;15.07;;;11.20;;
37407;SDS011;24866;50.248;8.252;2023-10-19T13:14:53;16.60;;;10.52;;
37407;SDS011;24866;50.248;8.252;2023-10-19T13:17:24;18.35;;;11.40;;
37407;SDS011;24866;50.248;8.252;2023-10-19T13:19:54;16.27;;;11.70;;
37407;SDS011;24866;50.248;8.252;2023-10-19T13:22:28;14.18;;;10.73;;
37407;SDS011;24866;50.248;8.252;2023-10-19T13:25:02;19.77;;;13.85;;
37407;SDS011;24866;50.248;8.252;2023-10-19T13:27:32;18.92;;;11.20;;
37407;SDS011;24866;50.248;8.252;2023-10-19T13:30:02;20.88;;;14.23;;
37407;SDS011;24866;50.248;8.252;2023-10-19T13:32:33;15.43;;;11.00;;
37407;SDS011;24866;50.248;8.252;2023-10-19T13:35:03;18.63;;;11.82;;
37407;SDS011;24866;50.248;8.252;2023-10-19T13:37:35;16.23;;;11.30;;
37407;SDS011;24866;50.248;8.252;2023-10-19T13:40:06;15.43;;;11.77;;
37407;SDS011;24866;50.248;8.252;2023-10-19T13:42:36;15.10;;;11.45;;
37407;SDS011;24866;50.248;8.252;2023-10-19T13:45:06;15.40;;;11.82;;
37407;SDS011;24866;50.248;8.252;2023-10-19T13:47:40;15.48;;;10.73;;
37407;SDS011;24866;50.248;8.252;2023-10-19T13:50:10;17.65;;;10.95;;
37407;SDS011;24866;50.248;8.252;2023-10-19T13:52:42;15.00;;;11.65;;
37407;SDS011;24866;50.248;8.252;2023-10-19T13:55:12;19.73;;;10.75;;
37407;SDS011;24866;50.248;8.252;2023-10-19T13:57:45;14.90;;;11.15;;
37407;SDS011;24866;50.248;8.252;2023-10-19T14:00:15;16.98;;;12.38;;
37407;SDS011;24866;50.248;8.252;2023-10-19T14:02:51;17.48;;;12.80;;
37407;SDS011;24866;50.248;8.252;2023-10-19T14:05:21;18.50;;;14.30;;
37407;SDS011;24866;50.248;8.252;2023-10-19T14:07:53;21.50;;;16.52;;
37407;SDS011;24866;50.248;8.252;2023-10-19T14:10:26;20.80;;;17.05;;
37407;SDS011;24866;50.248;8.252;2023-10-19T14:12:56;26.58;;;20.95;;
37407;SDS011;24866;50.248;8.252;2023-10-19T14:15:26;21.77;;;17.75;;
37407;SDS011;24866;50.248;8.252;2023-10-19T14:18:02;24.27;;;20.20;;
37407;SDS011;24866;50.248;8.252;2023-10-19T14:20:32;26.65;;;20.60;;
37407;SDS011;24866;50.248;8.252;2023-10-19T14:23:04;29.38;;;22.17;;
37407;SDS011;24866;50.248;8.252;2023-10-19T14:25:37;27.90;;;23.92;;
37407;SDS011;24866;50.248;8.252;2023-10-19T14:28:08;25.85;;;23.08;;
37407;SDS011;24866;50.248;8.252;2023-10-19T14:30:39;28.13;;;24.02;;
37407;SDS011;24866;50.248;8.252;2023-10-19T14:33:09;29.38;;;22.58;;
37407;SDS011;24866;50.248;8.252;2023-10-19T14:35:39;30.65;;;25.20;;
37407;SDS011;24866;50.248;8.252;2023-10-19T14:38:12;31.83;;;26.85;;
37407;SDS011;24866;50.248;8.252;2023-10-19T14:40:43;32.05;;;26.52;;
37407;SDS011;24866;50.248;8.252;2023-10-19T14:43:16;32.85;;;26.92;;
37407;SDS011;24866;50.248;8.252;2023-10-19T14:45:46;34.58;;;29.40;;
37407;SDS011;24866;50.248;8.252;2023-10-19T14:48:16;33.42;;;29.38;;
37407;SDS011;24866;50.248;8.252;2023-10-19T14:50:47;32.58;;;29.05;;
37407;SDS011;24866;50.248;8.252;2023-10-19T14:53:21;36.17;;;28.77;;
37407;SDS011;24866;50.248;8.252;2023-10-19T14:55:51;32.53;;;27.95;;
37407;SDS011;24866;50.248;8.252;2023-10-19T14:58:20;39.05;;;31.33;;
37407;SDS011;24866;50.248;8.252;2023-10-19T15:00:50;34.85;;;29.35;;
37407;SDS011;24866;50.248;8.252;2023-10-19T15:03:24;31.15;;;27.70;;